sensor_id;sensor_type;location;lat;lon;timestamp;temperature;humidity
35668;DHT22;22158;59.280;17.806;2023-05-29T00:00:14;11.00;98.30
35668;DHT22;22158;59.280;17.806;2023-05-29T00:02:44;11.00;98.50
35668;DHT22;22158;59.280;17.806;2023-05-29T00:05:14;11.00;98.80
35668;DHT22;22158;59.280;17.806;2023-05-29T00:07:40;11.10;99.00
35668;DHT22;22158;59.280;17.806;2023-05-29T00:10:07;11.10;99.30
35668;DHT22;22158;59.280;17.806;2023-05-29T00:12:33;11.10;99.30
35668;DHT22;22158;59.280;17.806;2023-05-29T00:14:59;11.10;99.50
35668;DHT22;22158;59.280;17.806;2023-05-29T00:17:25;11.00;99.60
35668;DHT22;22158;59.280;17.806;2023-05-29T00:19:51;11.00;99.50
35668;DHT22;22158;59.280;17.806;2023-05-29T00:22:16;11.00;99.60
35668;DHT22;22158;59.280;17.806;2023-05-29T00:24:42;11.00;99.60
35668;DHT22;22158;59.280;17.806;2023-05-29T00:27:08;11.00;99.90
35668;DHT22;22158;59.280;17.806;2023-05-29T00:29:36;10.90;99.90
35668;DHT22;22158;59.280;17.806;2023-05-29T00:32:02;10.90;99.90
35668;DHT22;22158;59.280;17.806;2023-05-29T00:34:27;10.90;99.90
35668;DHT22;22158;59.280;17.806;2023-05-29T00:36:53;10.90;99.90
35668;DHT22;22158;59.280;17.806;2023-05-29T00:39:21;11.00;99.90
35668;DHT22;22158;59.280;17.806;2023-05-29T00:41:47;10.90;99.90
35668;DHT22;22158;59.280;17.806;2023-05-29T00:44:19;10.90;99.90
35668;DHT22;22158;59.280;17.806;2023-05-29T00:46:50;11.00;99.90
35668;DHT22;22158;59.280;17.806;2023-05-29T00:49:16;11.00;99.90
35668;DHT22;22158;59.280;17.806;2023-05-29T00:51:42;11.00;99.90
35668;DHT22;22158;59.280;17.806;2023-05-29T00:54:12;11.00;99.90
35668;DHT22;22158;59.280;17.806;2023-05-29T00:56:41;11.00;99.90
35668;DHT22;22158;59.280;17.806;2023-05-29T00:59:11;11.00;99.90
35668;DHT22;22158;59.280;17.806;2023-05-29T01:01:37;11.00;99.90
35668;DHT22;22158;59.280;17.806;2023-05-29T01:04:05;11.00;99.90
35668;DHT22;22158;59.280;17.806;2023-05-29T01:06:34;11.00;99.90
35668;DHT22;22158;59.280;17.806;2023-05-29T01:09:00;11.00;99.90
35668;DHT22;22158;59.280;17.806;2023-05-29T01:11:45;11.00;99.90
35668;DHT22;22158;59.280;17.806;2023-05-29T01:14:29;11.00;99.90
35668;DHT22;22158;59.280;17.806;2023-05-29T01:17:13;11.00;99.90
35668;DHT22;22158;59.280;17.806;2023-05-29T01:22:31;11.00;99.90
35668;DHT22;22158;59.280;17.806;2023-05-29T01:25:17;11.10;99.90
35668;DHT22;22158;59.280;17.806;2023-05-29T01:27:45;11.10;99.90
35668;DHT22;22158;59.280;17.806;2023-05-29T01:30:14;11.10;99.90
35668;DHT22;22158;59.280;17.806;2023-05-29T01:32:41;11.00;99.90
35668;DHT22;22158;59.280;17.806;2023-05-29T01:35:08;11.10;99.90
35668;DHT22;22158;59.280;17.806;2023-05-29T01:37:33;11.10;99.90
35668;DHT22;22158;59.280;17.806;2023-05-29T01:39:59;11.10;99.50
35668;DHT22;22158;59.280;17.806;2023-05-29T01:42:26;11.10;99.40
35668;DHT22;22158;59.280;17.806;2023-05-29T01:44:53;11.00;98.50
35668;DHT22;22158;59.280;17.806;2023-05-29T01:47:19;11.00;98.50
35668;DHT22;22158;59.280;17.806;2023-05-29T01:49:47;11.00;98.10
35668;DHT22;22158;59.280;17.806;2023-05-29T01:52:14;10.90;98.00
35668;DHT22;22158;59.280;17.806;2023-05-29T01:54:40;10.70;98.00
35668;DHT22;22158;59.280;17.806;2023-05-29T01:57:05;10.60;98.20
35668;DHT22;22158;59.280;17.806;2023-05-29T01:59:32;10.50;98.10
35668;DHT22;22158;59.280;17.806;2023-05-29T02:02:08;10.40;98.00
35668;DHT22;22158;59.280;17.806;2023-05-29T02:04:33;10.40;98.10
35668;DHT22;22158;59.280;17.806;2023-05-29T02:06:59;10.30;97.80
35668;DHT22;22158;59.280;17.806;2023-05-29T02:09:25;10.20;97.40
35668;DHT22;22158;59.280;17.806;2023-05-29T02:11:51;10.20;97.40
35668;DHT22;22158;59.280;17.806;2023-05-29T02:14:16;10.10;97.40
35668;DHT22;22158;59.280;17.806;2023-05-29T02:16:42;10.10;97.10
35668;DHT22;22158;59.280;17.806;2023-05-29T02:19:09;10.10;97.10
35668;DHT22;22158;59.280;17.806;2023-05-29T02:21:38;10.10;97.00
35668;DHT22;22158;59.280;17.806;2023-05-29T02:24:04;10.00;96.70
35668;DHT22;22158;59.280;17.806;2023-05-29T02:26:31;10.00;96.70
35668;DHT22;22158;59.280;17.806;2023-05-29T02:28:57;10.00;96.80
35668;DHT22;22158;59.280;17.806;2023-05-29T02:31:22;9.90;97.00
35668;DHT22;22158;59.280;17.806;2023-05-29T02:33:48;9.90;96.60
35668;DHT22;22158;59.280;17.806;2023-05-29T02:36:13;9.90;96.30
35668;DHT22;22158;59.280;17.806;2023-05-29T02:38:39;9.90;96.30
35668;DHT22;22158;59.280;17.806;2023-05-29T02:41:05;9.90;95.90
35668;DHT22;22158;59.280;17.806;2023-05-29T02:43:31;9.80;96.10
35668;DHT22;22158;59.280;17.806;2023-05-29T02:45:57;9.80;96.10
35668;DHT22;22158;59.280;17.806;2023-05-29T02:48:22;9.80;96.20
35668;DHT22;22158;59.280;17.806;2023-05-29T02:50:48;9.80;96.30
35668;DHT22;22158;59.280;17.806;2023-05-29T02:53:13;9.80;96.50
35668;DHT22;22158;59.280;17.806;2023-05-29T02:55:39;9.90;96.80
35668;DHT22;22158;59.280;17.806;2023-05-29T02:58:05;9.90;96.70
35668;DHT22;22158;59.280;17.806;2023-05-29T03:00:30;9.90;97.00
35668;DHT22;22158;59.280;17.806;2023-05-29T03:02:56;9.90;97.00
35668;DHT22;22158;59.280;17.806;2023-05-29T03:05:22;9.80;97.20
35668;DHT22;22158;59.280;17.806;2023-05-29T03:07:47;9.80;97.40
35668;DHT22;22158;59.280;17.806;2023-05-29T03:10:13;9.80;97.40
35668;DHT22;22158;59.280;17.806;2023-05-29T03:12:42;9.80;97.40
35668;DHT22;22158;59.280;17.806;2023-05-29T03:15:09;9.90;97.60
35668;DHT22;22158;59.280;17.806;2023-05-29T03:17:35;9.90;97.80
35668;DHT22;22158;59.280;17.806;2023-05-29T03:20:02;9.90;97.60
35668;DHT22;22158;59.280;17.806;2023-05-29T03:22:31;9.80;97.70
35668;DHT22;22158;59.280;17.806;2023-05-29T03:24:57;9.80;97.80
35668;DHT22;22158;59.280;17.806;2023-05-29T03:27:23;9.80;98.00
35668;DHT22;22158;59.280;17.806;2023-05-29T03:29:48;9.70;97.70
35668;DHT22;22158;59.280;17.806;2023-05-29T03:32:14;9.70;97.60
35668;DHT22;22158;59.280;17.806;2023-05-29T03:34:40;9.70;97.70
35668;DHT22;22158;59.280;17.806;2023-05-29T03:37:05;9.70;98.00
35668;DHT22;22158;59.280;17.806;2023-05-29T03:39:31;9.70;98.10
35668;DHT22;22158;59.280;17.806;2023-05-29T03:41:56;9.70;97.90
35668;DHT22;22158;59.280;17.806;2023-05-29T03:44:22;9.80;97.90
35668;DHT22;22158;59.280;17.806;2023-05-29T03:46:51;9.90;98.00
35668;DHT22;22158;59.280;17.806;2023-05-29T03:49:16;9.90;97.50
35668;DHT22;22158;59.280;17.806;2023-05-29T03:51:42;9.90;97.60
35668;DHT22;22158;59.280;17.806;2023-05-29T03:54:08;9.90;97.40
35668;DHT22;22158;59.280;17.806;2023-05-29T03:56:33;9.90;97.20
35668;DHT22;22158;59.280;17.806;2023-05-29T03:59:00;9.90;96.60
35668;DHT22;22158;59.280;17.806;2023-05-29T04:01:26;9.80;96.70
35668;DHT22;22158;59.280;17.806;2023-05-29T04:03:51;9.80;96.40
35668;DHT22;22158;59.280;17.806;2023-05-29T04:06:17;9.70;96.60
35668;DHT22;22158;59.280;17.806;2023-05-29T04:08:43;9.70;96.80
35668;DHT22;22158;59.280;17.806;2023-05-29T04:11:08;9.70;96.50
35668;DHT22;22158;59.280;17.806;2023-05-29T04:13:34;9.70;96.40
35668;DHT22;22158;59.280;17.806;2023-05-29T04:16:00;9.70;96.40
35668;DHT22;22158;59.280;17.806;2023-05-29T04:18:26;9.70;96.40
35668;DHT22;22158;59.280;17.806;2023-05-29T04:20:51;9.70;96.60
35668;DHT22;22158;59.280;17.806;2023-05-29T04:23:18;9.70;96.50
35668;DHT22;22158;59.280;17.806;2023-05-29T04:25:44;9.70;96.90
35668;DHT22;22158;59.280;17.806;2023-05-29T04:28:10;9.70;96.90
35668;DHT22;22158;59.280;17.806;2023-05-29T04:30:36;9.70;96.60
35668;DHT22;22158;59.280;17.806;2023-05-29T04:33:01;9.70;96.50
35668;DHT22;22158;59.280;17.806;2023-05-29T04:35:28;9.70;97.00
35668;DHT22;22158;59.280;17.806;2023-05-29T04:37:54;9.70;96.70
35668;DHT22;22158;59.280;17.806;2023-05-29T04:40:22;9.70;96.60
35668;DHT22;22158;59.280;17.806;2023-05-29T04:42:47;9.80;96.60
35668;DHT22;22158;59.280;17.806;2023-05-29T04:45:13;9.70;96.70
35668;DHT22;22158;59.280;17.806;2023-05-29T04:47:39;9.80;96.40
35668;DHT22;22158;59.280;17.806;2023-05-29T04:50:15;9.70;96.60
35668;DHT22;22158;59.280;17.806;2023-05-29T04:52:41;9.70;96.70
35668;DHT22;22158;59.280;17.806;2023-05-29T04:55:07;9.70;97.20
35668;DHT22;22158;59.280;17.806;2023-05-29T04:57:33;9.70;96.70
35668;DHT22;22158;59.280;17.806;2023-05-29T04:59:58;9.80;96.60
35668;DHT22;22158;59.280;17.806;2023-05-29T05:02:24;9.80;96.80
35668;DHT22;22158;59.280;17.806;2023-05-29T05:04:49;9.80;96.20
35668;DHT22;22158;59.280;17.806;2023-05-29T05:07:15;9.90;96.10
35668;DHT22;22158;59.280;17.806;2023-05-29T05:09:42;9.90;96.60
35668;DHT22;22158;59.280;17.806;2023-05-29T05:12:07;9.90;96.20
35668;DHT22;22158;59.280;17.806;2023-05-29T05:14:33;9.90;96.10
35668;DHT22;22158;59.280;17.806;2023-05-29T05:16:59;10.00;96.00
35668;DHT22;22158;59.280;17.806;2023-05-29T05:19:24;10.00;96.20
35668;DHT22;22158;59.280;17.806;2023-05-29T05:21:50;10.00;95.70
35668;DHT22;22158;59.280;17.806;2023-05-29T05:24:16;10.00;96.30
35668;DHT22;22158;59.280;17.806;2023-05-29T05:26:42;10.10;95.80
35668;DHT22;22158;59.280;17.806;2023-05-29T05:29:07;10.10;95.60
35668;DHT22;22158;59.280;17.806;2023-05-29T05:31:33;10.10;95.50
35668;DHT22;22158;59.280;17.806;2023-05-29T05:33:58;10.20;95.30
35668;DHT22;22158;59.280;17.806;2023-05-29T05:36:24;10.20;95.20
35668;DHT22;22158;59.280;17.806;2023-05-29T05:38:50;10.20;95.30
35668;DHT22;22158;59.280;17.806;2023-05-29T05:41:15;10.10;95.40
35668;DHT22;22158;59.280;17.806;2023-05-29T05:43:41;10.20;95.20
35668;DHT22;22158;59.280;17.806;2023-05-29T05:46:07;10.20;95.20
35668;DHT22;22158;59.280;17.806;2023-05-29T05:48:32;10.20;95.20
35668;DHT22;22158;59.280;17.806;2023-05-29T05:50:58;10.30;95.50
35668;DHT22;22158;59.280;17.806;2023-05-29T05:53:23;10.40;95.30
35668;DHT22;22158;59.280;17.806;2023-05-29T05:55:49;10.50;95.00
35668;DHT22;22158;59.280;17.806;2023-05-29T05:58:15;10.50;94.80
35668;DHT22;22158;59.280;17.806;2023-05-29T06:00:40;10.60;94.10
35668;DHT22;22158;59.280;17.806;2023-05-29T06:03:07;10.60;94.30
35668;DHT22;22158;59.280;17.806;2023-05-29T06:05:33;10.70;95.20
35668;DHT22;22158;59.280;17.806;2023-05-29T06:08:01;10.80;94.30
35668;DHT22;22158;59.280;17.806;2023-05-29T06:10:27;10.80;94.00
35668;DHT22;22158;59.280;17.806;2023-05-29T06:12:53;10.90;93.60
35668;DHT22;22158;59.280;17.806;2023-05-29T06:15:19;10.90;93.60
35668;DHT22;22158;59.280;17.806;2023-05-29T06:17:44;10.90;93.90
35668;DHT22;22158;59.280;17.806;2023-05-29T06:20:10;11.00;93.90
35668;DHT22;22158;59.280;17.806;2023-05-29T06:22:37;11.00;94.00
35668;DHT22;22158;59.280;17.806;2023-05-29T06:25:03;11.00;93.70
35668;DHT22;22158;59.280;17.806;2023-05-29T06:27:28;11.10;94.70
35668;DHT22;22158;59.280;17.806;2023-05-29T06:29:54;11.20;93.00
35668;DHT22;22158;59.280;17.806;2023-05-29T06:32:20;11.20;92.80
35668;DHT22;22158;59.280;17.806;2023-05-29T06:34:45;11.20;92.80
35668;DHT22;22158;59.280;17.806;2023-05-29T06:37:11;11.20;92.60
35668;DHT22;22158;59.280;17.806;2023-05-29T06:39:38;11.30;93.10
35668;DHT22;22158;59.280;17.806;2023-05-29T06:42:07;11.30;91.90
35668;DHT22;22158;59.280;17.806;2023-05-29T06:44:33;11.30;92.30
35668;DHT22;22158;59.280;17.806;2023-05-29T06:46:59;11.30;92.90
35668;DHT22;22158;59.280;17.806;2023-05-29T06:49:24;11.30;92.20
35668;DHT22;22158;59.280;17.806;2023-05-29T06:51:50;11.20;92.20
35668;DHT22;22158;59.280;17.806;2023-05-29T06:54:16;11.30;92.00
35668;DHT22;22158;59.280;17.806;2023-05-29T06:56:41;11.40;92.40
35668;DHT22;22158;59.280;17.806;2023-05-29T06:59:07;11.40;91.30
35668;DHT22;22158;59.280;17.806;2023-05-29T07:01:32;11.40;91.50
35668;DHT22;22158;59.280;17.806;2023-05-29T07:03:58;11.30;91.30
35668;DHT22;22158;59.280;17.806;2023-05-29T07:06:23;11.40;92.00
35668;DHT22;22158;59.280;17.806;2023-05-29T07:08:49;11.30;91.00
35668;DHT22;22158;59.280;17.806;2023-05-29T07:11:15;11.50;91.70
35668;DHT22;22158;59.280;17.806;2023-05-29T07:13:40;11.60;92.00
35668;DHT22;22158;59.280;17.806;2023-05-29T07:16:06;11.80;91.80
35668;DHT22;22158;59.280;17.806;2023-05-29T07:18:32;11.90;92.30
35668;DHT22;22158;59.280;17.806;2023-05-29T07:20:59;11.80;90.40
35668;DHT22;22158;59.280;17.806;2023-05-29T07:23:25;11.90;90.50
35668;DHT22;22158;59.280;17.806;2023-05-29T07:25:50;11.90;90.00
35668;DHT22;22158;59.280;17.806;2023-05-29T07:28:16;11.90;89.40
35668;DHT22;22158;59.280;17.806;2023-05-29T07:30:42;12.00;91.20
35668;DHT22;22158;59.280;17.806;2023-05-29T07:33:07;12.10;88.90
35668;DHT22;22158;59.280;17.806;2023-05-29T07:35:33;12.10;90.00
35668;DHT22;22158;59.280;17.806;2023-05-29T07:37:59;12.00;90.30
35668;DHT22;22158;59.280;17.806;2023-05-29T07:40:25;12.10;89.70
35668;DHT22;22158;59.280;17.806;2023-05-29T07:42:50;12.20;90.10
35668;DHT22;22158;59.280;17.806;2023-05-29T07:45:16;12.30;87.50
35668;DHT22;22158;59.280;17.806;2023-05-29T07:47:42;12.40;87.20
35668;DHT22;22158;59.280;17.806;2023-05-29T07:50:08;12.40;85.70
35668;DHT22;22158;59.280;17.806;2023-05-29T07:52:34;12.40;86.10
35668;DHT22;22158;59.280;17.806;2023-05-29T07:55:00;12.40;84.70
35668;DHT22;22158;59.280;17.806;2023-05-29T07:57:27;12.60;87.10
35668;DHT22;22158;59.280;17.806;2023-05-29T07:59:53;12.70;87.50
35668;DHT22;22158;59.280;17.806;2023-05-29T08:02:19;12.80;85.30
35668;DHT22;22158;59.280;17.806;2023-05-29T08:04:45;12.80;83.10
35668;DHT22;22158;59.280;17.806;2023-05-29T08:07:10;12.90;86.80
35668;DHT22;22158;59.280;17.806;2023-05-29T08:09:36;12.80;82.80
35668;DHT22;22158;59.280;17.806;2023-05-29T08:12:01;12.80;82.10
35668;DHT22;22158;59.280;17.806;2023-05-29T08:14:27;12.80;81.90
35668;DHT22;22158;59.280;17.806;2023-05-29T08:16:54;13.00;87.10
35668;DHT22;22158;59.280;17.806;2023-05-29T08:19:19;13.10;85.60
35668;DHT22;22158;59.280;17.806;2023-05-29T08:21:45;13.20;82.80
35668;DHT22;22158;59.280;17.806;2023-05-29T08:24:11;13.40;83.00
35668;DHT22;22158;59.280;17.806;2023-05-29T08:26:37;13.40;84.50
35668;DHT22;22158;59.280;17.806;2023-05-29T08:29:03;13.50;83.50
35668;DHT22;22158;59.280;17.806;2023-05-29T08:31:29;13.60;84.10
35668;DHT22;22158;59.280;17.806;2023-05-29T08:33:55;13.70;81.50
35668;DHT22;22158;59.280;17.806;2023-05-29T08:36:21;13.80;81.70
35668;DHT22;22158;59.280;17.806;2023-05-29T08:38:48;14.00;83.50
35668;DHT22;22158;59.280;17.806;2023-05-29T08:44:04;14.10;82.00
35668;DHT22;22158;59.280;17.806;2023-05-29T08:46:32;14.20;81.20
35668;DHT22;22158;59.280;17.806;2023-05-29T08:48:58;14.10;80.10
35668;DHT22;22158;59.280;17.806;2023-05-29T08:51:29;14.20;79.10
35668;DHT22;22158;59.280;17.806;2023-05-29T08:53:57;14.30;80.30
35668;DHT22;22158;59.280;17.806;2023-05-29T08:56:23;14.40;79.10
35668;DHT22;22158;59.280;17.806;2023-05-29T08:58:49;14.50;80.00
35668;DHT22;22158;59.280;17.806;2023-05-29T09:01:16;14.30;78.40
35668;DHT22;22158;59.280;17.806;2023-05-29T09:03:42;14.30;82.60
35668;DHT22;22158;59.280;17.806;2023-05-29T09:06:08;14.50;77.50
35668;DHT22;22158;59.280;17.806;2023-05-29T09:08:34;14.50;81.60
35668;DHT22;22158;59.280;17.806;2023-05-29T09:11:00;14.50;79.90
35668;DHT22;22158;59.280;17.806;2023-05-29T09:13:25;14.60;79.50
35668;DHT22;22158;59.280;17.806;2023-05-29T09:15:58;14.60;80.10
35668;DHT22;22158;59.280;17.806;2023-05-29T09:18:25;14.90;82.50
35668;DHT22;22158;59.280;17.806;2023-05-29T09:20:53;15.00;81.90
35668;DHT22;22158;59.280;17.806;2023-05-29T09:23:19;15.20;79.90
35668;DHT22;22158;59.280;17.806;2023-05-29T09:25:51;15.30;82.30
35668;DHT22;22158;59.280;17.806;2023-05-29T09:28:18;15.60;81.60
35668;DHT22;22158;59.280;17.806;2023-05-29T09:30:45;15.80;80.10
35668;DHT22;22158;59.280;17.806;2023-05-29T09:33:15;16.00;78.60
35668;DHT22;22158;59.280;17.806;2023-05-29T09:35:46;16.00;76.80
35668;DHT22;22158;59.280;17.806;2023-05-29T09:38:13;16.00;79.20
35668;DHT22;22158;59.280;17.806;2023-05-29T09:40:40;16.00;74.10
35668;DHT22;22158;59.280;17.806;2023-05-29T09:43:10;16.00;74.80
35668;DHT22;22158;59.280;17.806;2023-05-29T09:45:40;16.00;78.40
35668;DHT22;22158;59.280;17.806;2023-05-29T09:48:16;16.30;75.10
35668;DHT22;22158;59.280;17.806;2023-05-29T09:50:43;16.50;79.30
35668;DHT22;22158;59.280;17.806;2023-05-29T09:53:23;16.50;77.50
35668;DHT22;22158;59.280;17.806;2023-05-29T09:55:54;16.50;73.20
35668;DHT22;22158;59.280;17.806;2023-05-29T09:58:21;16.50;74.60
35668;DHT22;22158;59.280;17.806;2023-05-29T10:00:48;16.60;77.80
35668;DHT22;22158;59.280;17.806;2023-05-29T10:03:14;16.70;74.80
35668;DHT22;22158;59.280;17.806;2023-05-29T10:05:49;16.80;74.60
35668;DHT22;22158;59.280;17.806;2023-05-29T10:08:18;16.70;71.90
35668;DHT22;22158;59.280;17.806;2023-05-29T10:10:46;16.70;74.50
35668;DHT22;22158;59.280;17.806;2023-05-29T10:13:14;16.70;72.10
35668;DHT22;22158;59.280;17.806;2023-05-29T10:15:42;16.50;73.80
35668;DHT22;22158;59.280;17.806;2023-05-29T10:18:20;16.70;72.80
35668;DHT22;22158;59.280;17.806;2023-05-29T10:20:50;16.80;73.70
35668;DHT22;22158;59.280;17.806;2023-05-29T10:23:20;17.00;76.90
35668;DHT22;22158;59.280;17.806;2023-05-29T10:25:49;17.00;72.00
35668;DHT22;22158;59.280;17.806;2023-05-29T10:28:16;16.90;69.60
35668;DHT22;22158;59.280;17.806;2023-05-29T10:30:47;17.00;72.80
35668;DHT22;22158;59.280;17.806;2023-05-29T10:38:18;17.10;73.40
35668;DHT22;22158;59.280;17.806;2023-05-29T10:40:45;17.00;71.90
35668;DHT22;22158;59.280;17.806;2023-05-29T10:43:30;17.00;69.90
35668;DHT22;22158;59.280;17.806;2023-05-29T10:46:02;17.20;72.40
35668;DHT22;22158;59.280;17.806;2023-05-29T10:50:55;17.30;70.20
35668;DHT22;22158;59.280;17.806;2023-05-29T10:53:25;17.50;71.00
35668;DHT22;22158;59.280;17.806;2023-05-29T10:55:52;17.70;71.40
35668;DHT22;22158;59.280;17.806;2023-05-29T10:58:25;17.70;67.00
35668;DHT22;22158;59.280;17.806;2023-05-29T11:00:52;17.90;74.20
35668;DHT22;22158;59.280;17.806;2023-05-29T11:03:25;17.90;68.10
35668;DHT22;22158;59.280;17.806;2023-05-29T11:08:45;18.20;67.40
35668;DHT22;22158;59.280;17.806;2023-05-29T11:11:12;18.00;66.30
35668;DHT22;22158;59.280;17.806;2023-05-29T11:13:39;17.80;65.10
35668;DHT22;22158;59.280;17.806;2023-05-29T11:18:58;18.00;70.00
35668;DHT22;22158;59.280;17.806;2023-05-29T11:24:26;18.30;64.30
35668;DHT22;22158;59.280;17.806;2023-05-29T11:26:55;18.30;66.10
35668;DHT22;22158;59.280;17.806;2023-05-29T11:29:26;18.20;67.00
35668;DHT22;22158;59.280;17.806;2023-05-29T11:32:12;18.20;66.60
35668;DHT22;22158;59.280;17.806;2023-05-29T11:34:40;18.10;66.60
35668;DHT22;22158;59.280;17.806;2023-05-29T11:37:06;18.20;67.80
35668;DHT22;22158;59.280;17.806;2023-05-29T11:39:36;18.30;71.10
35668;DHT22;22158;59.280;17.806;2023-05-29T11:42:02;18.50;68.50
35668;DHT22;22158;59.280;17.806;2023-05-29T11:44:28;18.60;67.60
35668;DHT22;22158;59.280;17.806;2023-05-29T11:47:05;18.60;65.00
35668;DHT22;22158;59.280;17.806;2023-05-29T11:49:35;18.50;67.30
35668;DHT22;22158;59.280;17.806;2023-05-29T11:52:09;18.50;69.50
35668;DHT22;22158;59.280;17.806;2023-05-29T11:54:35;18.50;68.00
35668;DHT22;22158;59.280;17.806;2023-05-29T11:57:01;18.50;66.80
35668;DHT22;22158;59.280;17.806;2023-05-29T11:59:31;18.30;67.10
35668;DHT22;22158;59.280;17.806;2023-05-29T12:01:57;18.20;67.00
35668;DHT22;22158;59.280;17.806;2023-05-29T12:04:23;18.20;68.20
35668;DHT22;22158;59.280;17.806;2023-05-29T12:06:49;18.30;69.90
35668;DHT22;22158;59.280;17.806;2023-05-29T12:09:30;18.20;67.40
35668;DHT22;22158;59.280;17.806;2023-05-29T12:12:03;18.20;65.90
35668;DHT22;22158;59.280;17.806;2023-05-29T12:14:28;18.60;70.50
35668;DHT22;22158;59.280;17.806;2023-05-29T12:16:54;19.30;69.50
35668;DHT22;22158;59.280;17.806;2023-05-29T12:19:20;19.70;65.20
35668;DHT22;22158;59.280;17.806;2023-05-29T12:21:46;19.60;65.10
35668;DHT22;22158;59.280;17.806;2023-05-29T12:24:11;19.50;64.00
35668;DHT22;22158;59.280;17.806;2023-05-29T12:26:37;19.00;65.40
35668;DHT22;22158;59.280;17.806;2023-05-29T12:29:04;19.00;64.70
35668;DHT22;22158;59.280;17.806;2023-05-29T12:31:30;19.10;65.30
35668;DHT22;22158;59.280;17.806;2023-05-29T12:34:08;19.20;64.20
35668;DHT22;22158;59.280;17.806;2023-05-29T12:36:34;19.00;62.50
35668;DHT22;22158;59.280;17.806;2023-05-29T12:39:04;19.30;67.10
35668;DHT22;22158;59.280;17.806;2023-05-29T12:41:34;19.60;64.90
35668;DHT22;22158;59.280;17.806;2023-05-29T12:44:02;19.40;62.10
35668;DHT22;22158;59.280;17.806;2023-05-29T12:46:38;19.30;62.90
35668;DHT22;22158;59.280;17.806;2023-05-29T12:49:14;19.20;65.70
35668;DHT22;22158;59.280;17.806;2023-05-29T12:51:41;19.40;62.50
35668;DHT22;22158;59.280;17.806;2023-05-29T12:54:10;19.80;63.60
35668;DHT22;22158;59.280;17.806;2023-05-29T12:56:35;20.10;60.40
35668;DHT22;22158;59.280;17.806;2023-05-29T12:59:01;19.90;60.40
35668;DHT22;22158;59.280;17.806;2023-05-29T13:01:27;20.10;61.20
35668;DHT22;22158;59.280;17.806;2023-05-29T13:03:52;20.50;63.20
35668;DHT22;22158;59.280;17.806;2023-05-29T13:06:18;21.00;65.30
35668;DHT22;22158;59.280;17.806;2023-05-29T13:08:43;21.40;65.70
35668;DHT22;22158;59.280;17.806;2023-05-29T13:11:09;22.00;67.60
35668;DHT22;22158;59.280;17.806;2023-05-29T13:13:35;22.30;65.30
35668;DHT22;22158;59.280;17.806;2023-05-29T13:16:00;22.50;63.20
35668;DHT22;22158;59.280;17.806;2023-05-29T13:18:26;22.60;62.10
35668;DHT22;22158;59.280;17.806;2023-05-29T13:20:51;22.40;63.30
35668;DHT22;22158;59.280;17.806;2023-05-29T13:23:17;22.10;63.30
35668;DHT22;22158;59.280;17.806;2023-05-29T13:25:42;21.50;61.70
35668;DHT22;22158;59.280;17.806;2023-05-29T13:28:08;21.20;65.90
35668;DHT22;22158;59.280;17.806;2023-05-29T13:30:34;21.30;65.20
35668;DHT22;22158;59.280;17.806;2023-05-29T13:32:59;21.40;64.90
35668;DHT22;22158;59.280;17.806;2023-05-29T13:35:25;21.30;65.70
35668;DHT22;22158;59.280;17.806;2023-05-29T13:37:51;21.20;67.30
35668;DHT22;22158;59.280;17.806;2023-05-29T13:40:17;21.10;66.10
35668;DHT22;22158;59.280;17.806;2023-05-29T13:42:42;20.80;64.50
35668;DHT22;22158;59.280;17.806;2023-05-29T13:45:08;20.50;66.60
35668;DHT22;22158;59.280;17.806;2023-05-29T13:47:35;20.40;68.90
35668;DHT22;22158;59.280;17.806;2023-05-29T13:50:01;20.40;66.70
35668;DHT22;22158;59.280;17.806;2023-05-29T13:52:27;20.40;69.80
35668;DHT22;22158;59.280;17.806;2023-05-29T13:54:52;21.00;69.20
35668;DHT22;22158;59.280;17.806;2023-05-29T13:57:18;21.50;68.00
35668;DHT22;22158;59.280;17.806;2023-05-29T13:59:44;21.70;65.30
35668;DHT22;22158;59.280;17.806;2023-05-29T14:02:10;21.70;65.50
35668;DHT22;22158;59.280;17.806;2023-05-29T14:04:36;21.90;66.00
35668;DHT22;22158;59.280;17.806;2023-05-29T14:07:03;22.10;66.70
35668;DHT22;22158;59.280;17.806;2023-05-29T14:09:29;22.30;63.80
35668;DHT22;22158;59.280;17.806;2023-05-29T14:11:56;22.10;64.20
35668;DHT22;22158;59.280;17.806;2023-05-29T14:14:22;21.50;64.80
35668;DHT22;22158;59.280;17.806;2023-05-29T14:16:48;21.20;66.80
35668;DHT22;22158;59.280;17.806;2023-05-29T14:19:14;21.40;65.00
35668;DHT22;22158;59.280;17.806;2023-05-29T14:21:40;21.50;65.60
35668;DHT22;22158;59.280;17.806;2023-05-29T14:24:06;21.90;63.50
35668;DHT22;22158;59.280;17.806;2023-05-29T14:26:32;22.00;65.10
35668;DHT22;22158;59.280;17.806;2023-05-29T14:28:58;22.30;62.50
35668;DHT22;22158;59.280;17.806;2023-05-29T14:31:24;22.30;63.50
35668;DHT22;22158;59.280;17.806;2023-05-29T14:33:49;22.30;61.50
35668;DHT22;22158;59.280;17.806;2023-05-29T14:36:15;22.50;62.70
35668;DHT22;22158;59.280;17.806;2023-05-29T14:38:40;22.40;62.90
35668;DHT22;22158;59.280;17.806;2023-05-29T14:41:08;22.70;64.40
35668;DHT22;22158;59.280;17.806;2023-05-29T14:43:33;22.70;60.20
35668;DHT22;22158;59.280;17.806;2023-05-29T14:45:59;21.80;60.10
35668;DHT22;22158;59.280;17.806;2023-05-29T14:48:25;21.60;64.10
35668;DHT22;22158;59.280;17.806;2023-05-29T14:50:50;21.70;64.00
35668;DHT22;22158;59.280;17.806;2023-05-29T14:53:16;22.20;65.30
35668;DHT22;22158;59.280;17.806;2023-05-29T14:55:41;22.60;61.50
35668;DHT22;22158;59.280;17.806;2023-05-29T14:58:07;22.90;61.90
35668;DHT22;22158;59.280;17.806;2023-05-29T15:00:32;23.10;61.20
35668;DHT22;22158;59.280;17.806;2023-05-29T15:02:58;23.10;59.90
35668;DHT22;22158;59.280;17.806;2023-05-29T15:05:28;23.50;60.40
35668;DHT22;22158;59.280;17.806;2023-05-29T15:07:54;23.80;58.50
35668;DHT22;22158;59.280;17.806;2023-05-29T15:10:25;23.90;57.50
35668;DHT22;22158;59.280;17.806;2023-05-29T15:12:54;23.80;57.40
35668;DHT22;22158;59.280;17.806;2023-05-29T15:15:26;23.60;58.50
35668;DHT22;22158;59.280;17.806;2023-05-29T15:17:53;23.70;58.70
35668;DHT22;22158;59.280;17.806;2023-05-29T15:20:22;23.60;59.40
35668;DHT22;22158;59.280;17.806;2023-05-29T15:22:48;23.40;56.60
35668;DHT22;22158;59.280;17.806;2023-05-29T15:25:14;22.90;57.80
35668;DHT22;22158;59.280;17.806;2023-05-29T15:27:40;22.50;58.20
35668;DHT22;22158;59.280;17.806;2023-05-29T15:30:16;21.70;58.00
35668;DHT22;22158;59.280;17.806;2023-05-29T15:32:43;21.50;61.30
35668;DHT22;22158;59.280;17.806;2023-05-29T15:35:10;21.40;61.40
35668;DHT22;22158;59.280;17.806;2023-05-29T15:37:37;21.30;61.00